KGUP/GUP METAR and TAF weather

Enter ICAO airport designator
Station Type Date Time Source
KGUP METAR 2020/09/22 02:53 UTC NOAA

KGUP 220253Z AUTO 26010G16KT 10SM CLR 22/00 A3029 RMK AO2 WSHFT 0145 SLP116 T02170000 53019


Station Type Date Time Source
KGUP Decoded METAR 2020/09/22 02:53 UTC NOAA

GALLUP MUNICIPAL AIRPORT, NM, United States (KGUP) 35-31N 108-47W 1971M
Sep 21, 2020 - 10:53 PM EDT / 2020.09.22 0253 UTC
Wind: from the W (260 degrees) at 12 MPH (10 KT) gusting to 18 MPH (16 KT):0
Visibility: 10 mile(s):0
Sky conditions: clear
Temperature: 71.1 F (21.7 C)
Dew Point: 32.0 F (0.0 C)
Relative Humidity: 23%
Pressure (altimeter): 30.29 in. Hg (1025 hPa)
Pressure tendency: 0.06 inches (1.9 hPa) higher than three hours ago
ob: KGUP 220253Z AUTO 26010G16KT 10SM CLR 22/00 A3029 RMK AO2 WSHFT 0145 SLP116 T02170000 53019
cycle: 3

Station Type Date Time Source
KGUP TAF 2020/09/21 18:39 UTC NOAA

TAF KGUP 211737Z 2118/2218 24008KT P6SM FEW120
FM212100 26009KT P6SM BKN120
FM220200 VRB03KT P6SM SCT150

Example: see airport list